createdAt,value
2018-10-15T00:02:01.218Z,17.60
2018-10-15T00:04:03.426Z,15.97
2018-10-15T00:06:06.228Z,16.33
2018-10-15T00:08:08.443Z,15.23
2018-10-15T00:10:10.622Z,16.83
2018-10-15T00:12:12.749Z,16.50
2018-10-15T00:14:14.914Z,16.30
2018-10-15T00:16:17.090Z,16.60
2018-10-15T00:18:19.246Z,16.33
2018-10-15T00:20:21.819Z,16.50
2018-10-15T00:22:23.986Z,16.20
2018-10-15T00:24:26.173Z,17.97
2018-10-15T00:26:28.336Z,16.67
2018-10-15T00:28:30.490Z,19.30
2018-10-15T00:30:32.641Z,17.30
2018-10-15T00:32:34.766Z,16.03
2018-10-15T00:34:36.938Z,16.93
2018-10-15T00:36:39.135Z,16.47
2018-10-15T00:38:41.311Z,19.40
2018-10-15T00:40:43.502Z,16.60
2018-10-15T00:42:45.666Z,16.43
2018-10-15T00:44:47.807Z,17.90
2018-10-15T00:46:49.946Z,16.73
2018-10-15T00:48:52.110Z,17.20
2018-10-15T00:50:54.248Z,16.97
2018-10-15T00:52:56.473Z,17.60
2018-10-15T00:54:59.230Z,16.60
2018-10-15T00:57:01.385Z,16.80
2018-10-15T00:59:03.794Z,17.40
2018-10-15T01:01:05.918Z,18.37
2018-10-15T01:03:08.098Z,16.53
2018-10-15T01:05:10.938Z,16.40
2018-10-15T01:07:13.099Z,16.50
2018-10-15T01:09:15.260Z,18.03
2018-10-15T01:11:17.407Z,17.87
2018-10-15T01:13:20.303Z,17.70
2018-10-15T01:15:22.552Z,18.00
2018-10-15T01:17:24.698Z,17.70
2018-10-15T01:19:26.929Z,17.40
2018-10-15T01:21:29.119Z,18.20
2018-10-15T01:23:31.340Z,17.13
2018-10-15T01:25:33.507Z,16.40
2018-10-15T01:27:35.688Z,17.97
2018-10-15T01:29:37.926Z,17.70
2018-10-15T01:31:40.201Z,17.37
2018-10-15T01:33:42.979Z,15.43
2018-10-15T01:35:45.141Z,18.37
2018-10-15T01:37:47.427Z,18.93
2018-10-15T01:39:49.886Z,18.00
2018-10-15T01:41:52.655Z,18.23
2018-10-15T01:43:54.853Z,18.93
2018-10-15T01:45:57.018Z,18.30
2018-10-15T01:47:59.226Z,18.73
2018-10-15T01:50:01.528Z,19.00
2018-10-15T01:52:03.693Z,17.83
2018-10-15T01:54:05.972Z,19.27
2018-10-15T01:56:08.110Z,17.50
2018-10-15T01:58:10.214Z,18.07
2018-10-15T02:00:12.378Z,17.50
2018-10-15T02:02:14.491Z,18.67
2018-10-15T02:04:16.627Z,18.60
2018-10-15T02:06:18.753Z,18.00
2018-10-15T02:08:20.886Z,17.30
2018-10-15T02:10:23.011Z,17.90
2018-10-15T02:12:25.182Z,18.33
2018-10-15T02:14:28.673Z,20.70
2018-10-15T02:16:32.398Z,17.07
2018-10-15T02:18:34.868Z,18.73
2018-10-15T02:20:39.889Z,16.60
2018-10-15T02:22:44.895Z,17.60
2018-10-15T02:24:48.415Z,17.90
2018-10-15T02:26:51.653Z,16.37
2018-10-15T02:28:55.236Z,17.17
2018-10-15T02:30:58.089Z,17.37
2018-10-15T02:33:02.203Z,18.57
2018-10-15T02:35:05.606Z,16.70
2018-10-15T02:37:08.604Z,17.27
2018-10-15T02:39:13.038Z,17.83
2018-10-15T02:41:16.755Z,16.87
2018-10-15T02:43:19.558Z,18.50
2018-10-15T02:45:22.314Z,18.10
2018-10-15T02:47:31.288Z,18.17
2018-10-15T02:49:35.151Z,17.10
2018-10-15T02:51:38.274Z,18.00
2018-10-15T02:53:41.939Z,17.90
2018-10-15T02:55:44.532Z,18.83
2018-10-15T02:57:47.234Z,18.87
2018-10-15T02:59:49.663Z,18.00
2018-10-15T03:01:52.026Z,18.10
2018-10-15T03:03:54.530Z,17.97
2018-10-15T03:05:57.288Z,18.73
2018-10-15T03:08:00.618Z,17.13
2018-10-15T03:10:04.257Z,17.07
2018-10-15T03:12:06.933Z,17.97
2018-10-15T03:14:09.153Z,19.10
2018-10-15T03:16:11.373Z,17.70
2018-10-15T03:18:13.735Z,17.90
2018-10-15T03:20:17.054Z,18.77
2018-10-15T03:22:19.682Z,17.93
2018-10-15T03:24:22.052Z,17.60
2018-10-15T03:26:24.454Z,17.97
2018-10-15T03:28:27.179Z,17.90
2018-10-15T03:30:29.688Z,17.33
2018-10-15T03:32:32.151Z,18.50
2018-10-15T03:34:34.466Z,18.07
2018-10-15T03:36:36.795Z,17.60
2018-10-15T03:38:39.215Z,17.03
2018-10-15T03:40:42.306Z,18.57
2018-10-15T03:42:44.831Z,17.53
2018-10-15T03:44:47.649Z,17.10
2018-10-15T03:46:50.328Z,18.60
2018-10-15T03:48:52.853Z,17.57
2018-10-15T03:50:55.967Z,16.77
2018-10-15T03:52:58.466Z,16.73
2018-10-15T03:55:02.674Z,17.17
2018-10-15T03:57:05.846Z,17.00
2018-10-15T03:59:08.145Z,16.33
2018-10-15T04:01:12.567Z,16.30
2018-10-15T04:03:15.371Z,16.10
2018-10-15T04:05:18.326Z,14.90
2018-10-15T04:07:21.834Z,15.00
2018-10-15T04:09:24.493Z,14.70
2018-10-15T04:11:27.584Z,14.37
2018-10-15T04:13:30.425Z,14.17
2018-10-15T04:15:33.077Z,14.43
2018-10-15T04:17:35.806Z,13.40
2018-10-15T04:19:38.453Z,13.93
2018-10-15T04:21:41.711Z,13.70
2018-10-15T04:23:44.271Z,14.70
2018-10-15T04:25:46.412Z,13.93
2018-10-15T04:27:48.564Z,15.13
2018-10-15T04:29:50.821Z,14.40
2018-10-15T04:31:53.105Z,14.00
2018-10-15T04:33:55.279Z,15.03
2018-10-15T04:35:57.422Z,14.00
2018-10-15T04:37:59.635Z,13.40
2018-10-15T04:40:01.900Z,13.37
2018-10-15T04:42:04.701Z,14.03
2018-10-15T04:44:06.984Z,12.70
2018-10-15T04:46:09.140Z,12.20
2018-10-15T04:48:11.244Z,12.93
2018-10-15T04:50:13.381Z,12.37
2018-10-15T04:52:15.808Z,12.83
2018-10-15T04:54:18.423Z,13.33
2018-10-15T04:56:20.748Z,11.90
2018-10-15T04:58:23.748Z,12.33
2018-10-15T05:00:25.954Z,12.07
2018-10-15T05:02:28.997Z,11.97
2018-10-15T05:04:31.450Z,12.47
2018-10-15T05:06:34.413Z,10.37
2018-10-15T05:08:36.579Z,12.50
2018-10-15T05:10:38.646Z,11.23
2018-10-15T05:12:40.785Z,10.77
2018-10-15T05:14:42.898Z,11.77
2018-10-15T05:16:45.049Z,11.60
2018-10-15T05:18:47.229Z,11.40
2018-10-15T05:20:49.353Z,11.40
2018-10-15T05:22:51.495Z,11.90
2018-10-15T05:24:53.705Z,13.83
2018-10-15T05:26:56.018Z,12.90
2018-10-15T05:28:58.144Z,12.53
2018-10-15T05:31:00.394Z,12.30
2018-10-15T05:33:02.557Z,12.37
2018-10-15T05:35:06.562Z,11.33
2018-10-15T05:37:08.795Z,12.33
2018-10-15T05:39:11.477Z,12.00
2018-10-15T05:41:13.614Z,12.43
2018-10-15T05:43:15.775Z,11.80
2018-10-15T05:45:18.530Z,11.53
2018-10-15T05:47:20.634Z,12.77
2018-10-15T05:49:22.755Z,12.40
2018-10-15T05:51:33.093Z,12.33
2018-10-15T05:53:35.363Z,12.20
2018-10-15T05:55:37.622Z,11.70
2018-10-15T05:57:40.011Z,15.03
2018-10-15T05:59:42.322Z,14.57
2018-10-15T06:01:44.529Z,14.40
2018-10-15T06:03:47.262Z,14.13
2018-10-15T06:05:49.559Z,12.37
2018-10-15T06:07:51.999Z,11.30
2018-10-15T06:09:54.385Z,11.70
2018-10-15T06:11:56.984Z,11.70
2018-10-15T06:13:59.288Z,11.93
2018-10-15T06:16:01.694Z,12.20
2018-10-15T06:18:04.018Z,12.23
2018-10-15T06:20:18.255Z,13.93
2018-10-15T06:22:20.849Z,11.93
2018-10-15T06:24:24.155Z,10.97
2018-10-15T06:26:26.329Z,11.27
2018-10-15T06:28:28.518Z,11.50
2018-10-15T06:30:30.848Z,11.50
2018-10-15T06:32:33.034Z,11.70
2018-10-15T06:34:35.215Z,11.43
2018-10-15T06:36:37.608Z,11.80
2018-10-15T06:38:39.931Z,11.40
2018-10-15T06:40:42.075Z,13.73
2018-10-15T06:42:44.294Z,13.00
2018-10-15T06:44:46.936Z,20.90
2018-10-15T06:46:49.617Z,12.37
2018-10-15T06:48:52.203Z,13.77
2018-10-15T06:50:54.778Z,13.43
2018-10-15T06:53:09.876Z,12.93
2018-10-15T06:55:12.454Z,13.07
2018-10-15T06:57:15.266Z,12.70
2018-10-15T06:59:18.879Z,11.90
2018-10-15T07:01:24.458Z,12.90
2018-10-15T07:03:31.030Z,12.73
2018-10-15T07:05:36.212Z,12.80
2018-10-15T07:07:43.798Z,12.63
2018-10-15T07:09:49.868Z,11.37
2018-10-15T07:11:52.535Z,12.00
2018-10-15T07:13:58.884Z,12.20
2018-10-15T07:16:06.437Z,13.47
2018-10-15T07:18:22.591Z,11.93
2018-10-15T07:23:00.263Z,12.23
2018-10-15T07:25:19.544Z,12.10
2018-10-15T07:27:23.008Z,11.80
2018-10-15T07:29:28.261Z,10.93
2018-10-15T07:31:31.287Z,11.30
2018-10-15T07:33:37.041Z,10.80
2018-10-15T07:38:00.789Z,11.63
2018-10-15T07:40:05.958Z,11.17
2018-10-15T07:42:27.060Z,10.77
2018-10-15T07:44:31.397Z,11.20
2018-10-15T07:49:22.959Z,10.70
2018-10-15T07:51:29.689Z,10.60
2018-10-15T07:53:32.670Z,10.07
2018-10-15T07:55:35.437Z,11.10
2018-10-15T07:57:38.449Z,11.30
2018-10-15T07:59:42.283Z,11.30
2018-10-15T08:01:49.273Z,10.87
2018-10-15T08:03:52.994Z,10.30
2018-10-15T08:05:56.633Z,10.27
2018-10-15T08:08:02.102Z,10.73
2018-10-15T08:10:08.374Z,10.43
2018-10-15T08:12:11.111Z,11.40
2018-10-15T08:14:15.095Z,13.20
2018-10-15T08:16:19.635Z,12.20
2018-10-15T08:18:22.532Z,12.50
2018-10-15T08:20:28.430Z,11.60
2018-10-15T08:22:45.119Z,11.07
2018-10-15T08:24:58.745Z,11.17
2018-10-15T08:27:01.190Z,10.60
2018-10-15T08:29:03.887Z,10.57
2018-10-15T08:31:06.285Z,10.40
2018-10-15T08:33:08.580Z,11.00
2018-10-15T08:35:10.986Z,10.93
2018-10-15T08:37:13.220Z,11.33
2018-10-15T08:39:15.483Z,10.57
2018-10-15T08:41:17.907Z,10.97
2018-10-15T08:43:20.191Z,11.10
2018-10-15T08:45:23.588Z,11.40
2018-10-15T08:47:26.005Z,11.00
2018-10-15T08:49:28.662Z,11.90
2018-10-15T08:51:31.995Z,11.93
2018-10-15T08:54:26.662Z,11.07
2018-10-15T08:56:29.180Z,10.80
2018-10-15T08:58:31.772Z,10.70
2018-10-15T09:00:34.087Z,11.10
2018-10-15T09:02:36.641Z,11.70
2018-10-15T09:04:39.118Z,10.80
2018-10-15T09:06:43.616Z,10.40
2018-10-15T09:08:46.402Z,10.50
2018-10-15T09:10:49.107Z,9.97
2018-10-15T09:12:51.603Z,9.83
2018-10-15T09:14:54.063Z,10.47
2018-10-15T09:16:56.752Z,10.00
2018-10-15T09:18:59.536Z,9.07
2018-10-15T09:21:02.244Z,9.50
2018-10-15T09:23:05.128Z,10.30
2018-10-15T09:25:09.740Z,10.43
2018-10-15T09:27:12.340Z,9.60
2018-10-15T09:29:16.797Z,9.70
2018-10-15T09:31:19.309Z,9.07
2018-10-15T09:33:21.764Z,9.40
2018-10-15T09:35:24.267Z,9.67
2018-10-15T09:37:26.900Z,9.53
2018-10-15T09:39:29.584Z,9.33
2018-10-15T09:41:32.267Z,8.43
2018-10-15T09:43:34.779Z,9.27
2018-10-15T09:45:38.805Z,10.17
2018-10-15T09:47:42.959Z,9.13
2018-10-15T09:49:46.066Z,9.80
2018-10-15T09:51:49.843Z,9.47
2018-10-15T09:53:53.752Z,9.63
2018-10-15T09:55:56.904Z,9.77
2018-10-15T09:57:59.596Z,9.33
2018-10-15T10:00:03.480Z,9.47
2018-10-15T10:02:10.129Z,8.90
2018-10-15T10:04:12.832Z,9.80
2018-10-15T10:06:15.611Z,9.40
2018-10-15T10:08:20.912Z,8.23
2018-10-15T10:10:24.036Z,8.87
2018-10-15T10:12:26.460Z,8.70
2018-10-15T10:14:29.122Z,8.60
2018-10-15T10:16:31.633Z,9.23
2018-10-15T10:18:34.779Z,8.30
2018-10-15T10:20:38.434Z,8.90
2018-10-15T10:22:40.942Z,8.77
2018-10-15T10:24:43.502Z,9.83
2018-10-15T10:26:45.888Z,9.00
2018-10-15T10:28:48.258Z,9.03
2018-10-15T10:30:50.576Z,9.10
2018-10-15T10:32:53.066Z,9.50
2018-10-15T10:35:25.151Z,8.80
2018-10-15T10:37:27.579Z,8.87
2018-10-15T10:39:30.012Z,9.50
2018-10-15T10:41:32.505Z,9.00
2018-10-15T10:43:35.010Z,8.90
2018-10-15T10:45:37.710Z,9.50
2018-10-15T10:47:40.426Z,9.40
2018-10-15T10:49:42.882Z,9.60
2018-10-15T10:51:45.703Z,8.70
2018-10-15T10:53:48.335Z,8.70
2018-10-15T10:55:50.798Z,8.50
2018-10-15T10:57:53.367Z,8.50
2018-10-15T10:59:56.436Z,8.30
2018-10-15T11:01:59.085Z,8.20
2018-10-15T11:04:02.021Z,8.20
2018-10-15T11:06:04.954Z,7.90
2018-10-15T11:08:07.904Z,8.97
2018-10-15T11:10:10.485Z,8.53
2018-10-15T11:12:13.127Z,7.83
2018-10-15T11:14:15.609Z,8.17
2018-10-15T11:16:18.272Z,8.17
2018-10-15T11:18:20.848Z,8.30
2018-10-15T11:20:23.386Z,8.33
2018-10-15T11:22:26.121Z,8.77
2018-10-15T11:24:29.659Z,8.17
2018-10-15T11:26:47.401Z,8.10
2018-10-15T11:28:50.947Z,8.47
2018-10-15T11:30:53.642Z,8.27
2018-10-15T11:32:56.647Z,8.37
2018-10-15T11:34:59.636Z,8.80
2018-10-15T11:37:02.089Z,8.00
2018-10-15T11:39:06.230Z,7.47
2018-10-15T11:41:10.879Z,8.20
2018-10-15T11:43:15.061Z,7.77
2018-10-15T11:45:20.301Z,8.07
2018-10-15T11:47:22.951Z,8.60
2018-10-15T11:49:25.526Z,8.17
2018-10-15T11:51:29.176Z,8.30
2018-10-15T11:54:03.775Z,7.37
2018-10-15T11:56:06.364Z,7.43
2018-10-15T11:58:08.780Z,8.00
2018-10-15T12:00:12.724Z,7.80
2018-10-15T12:02:15.208Z,8.40
2018-10-15T12:04:17.892Z,7.90
2018-10-15T12:06:20.340Z,8.67
2018-10-15T12:08:32.077Z,8.10
2018-10-15T12:10:43.894Z,8.13
2018-10-15T12:12:48.028Z,7.97
2018-10-15T12:14:50.844Z,7.80
2018-10-15T12:16:53.709Z,8.53
2018-10-15T12:19:00.326Z,7.97
2018-10-15T12:21:04.561Z,8.70
2018-10-15T12:23:08.128Z,7.53
2018-10-15T12:25:14.190Z,7.80
2018-10-15T12:27:16.728Z,7.60
2018-10-15T12:29:20.169Z,7.90
2018-10-15T12:31:23.877Z,7.93
2018-10-15T12:33:27.741Z,7.20
2018-10-15T12:37:46.087Z,8.33
2018-10-15T12:39:51.387Z,7.83
2018-10-15T12:44:15.482Z,7.83
2018-10-15T12:46:32.821Z,7.73
2018-10-15T12:48:37.404Z,7.20
2018-10-15T12:55:07.222Z,7.80
2018-10-15T12:57:10.107Z,7.30
2018-10-15T12:59:12.642Z,8.63
2018-10-15T13:01:16.518Z,7.90
2018-10-15T13:03:19.422Z,8.00
2018-10-15T13:07:50.080Z,7.50
2018-10-15T13:09:52.585Z,8.30
2018-10-15T13:11:55.022Z,8.47
2018-10-15T13:13:58.387Z,7.77
2018-10-15T13:16:00.933Z,7.67
2018-10-15T13:18:03.507Z,8.30
2018-10-15T13:20:08.859Z,7.57
2018-10-15T13:22:11.663Z,6.83
2018-10-15T13:24:15.618Z,7.70
2018-10-15T13:26:18.441Z,7.27
2018-10-15T13:28:21.037Z,7.17
2018-10-15T13:30:25.678Z,7.40
2018-10-15T13:32:28.306Z,8.20
2018-10-15T13:34:32.000Z,7.83
2018-10-15T13:36:35.477Z,8.30
2018-10-15T13:38:38.281Z,6.80
2018-10-15T13:45:33.756Z,7.37
2018-10-15T13:47:36.177Z,7.00
2018-10-15T13:49:39.653Z,6.80
2018-10-15T13:51:44.588Z,7.00
2018-10-15T13:53:48.002Z,8.57
2018-10-15T13:56:01.428Z,7.40
2018-10-15T13:58:04.636Z,8.13
2018-10-15T14:00:19.312Z,7.40
2018-10-15T14:02:27.010Z,7.00
2018-10-15T14:04:57.924Z,8.40
2018-10-15T14:07:05.880Z,7.50
2018-10-15T14:09:10.024Z,7.10
2018-10-15T14:13:27.065Z,7.70
2018-10-15T14:15:31.673Z,6.93
2018-10-15T14:17:34.400Z,7.40
2018-10-15T14:19:36.927Z,7.80
2018-10-15T14:21:39.567Z,7.73
2018-10-15T14:23:42.457Z,7.17
2018-10-15T14:25:45.059Z,6.80
2018-10-15T14:27:47.411Z,7.40
2018-10-15T14:29:49.554Z,6.47
2018-10-15T14:31:52.052Z,7.00
2018-10-15T14:33:54.640Z,6.67
2018-10-15T14:36:10.177Z,7.53
2018-10-15T14:38:12.789Z,7.30
2018-10-15T14:40:17.539Z,7.20
2018-10-15T14:42:20.398Z,7.00
2018-10-15T14:44:23.128Z,7.37
2018-10-15T14:46:25.774Z,7.70
2018-10-15T14:48:28.570Z,7.20
2018-10-15T14:51:03.639Z,6.90
2018-10-15T14:53:06.380Z,6.83
2018-10-15T14:55:09.446Z,7.07
2018-10-15T14:57:12.268Z,7.20
2018-10-15T14:59:15.018Z,7.40
2018-10-15T15:01:17.651Z,6.13
2018-10-15T15:03:20.277Z,7.50
2018-10-15T15:05:23.957Z,7.33
2018-10-15T15:07:26.717Z,8.00
2018-10-15T15:09:40.923Z,6.87
2018-10-15T15:12:58.616Z,7.23
2018-10-15T15:15:01.289Z,6.30
2018-10-15T15:17:05.186Z,7.03
2018-10-15T15:19:09.491Z,7.33
2018-10-15T15:23:21.589Z,6.80
2018-10-15T15:25:25.282Z,6.80
2018-10-15T15:27:44.494Z,7.57
2018-10-15T15:29:47.458Z,7.03
2018-10-15T15:31:50.355Z,7.23
2018-10-15T15:33:54.326Z,7.57
2018-10-15T15:35:58.621Z,7.97
2018-10-15T15:38:01.289Z,7.13
2018-10-15T15:40:04.029Z,6.93
2018-10-15T15:42:06.719Z,7.00
2018-10-15T15:44:12.673Z,7.10
2018-10-15T15:46:15.336Z,6.30
2018-10-15T15:48:17.755Z,7.03
2018-10-15T15:50:33.588Z,7.53
2018-10-15T15:52:38.806Z,7.30
2018-10-15T15:54:41.440Z,6.93
2018-10-15T15:56:44.067Z,7.20
2018-10-15T15:58:46.320Z,7.20
2018-10-15T16:00:48.971Z,6.63
2018-10-15T16:02:52.014Z,7.10
2018-10-15T16:04:54.547Z,7.53
2018-10-15T16:06:57.160Z,6.40
2018-10-15T16:09:00.035Z,7.43
2018-10-15T16:11:03.058Z,6.90
2018-10-15T16:13:10.035Z,7.87
2018-10-15T16:15:18.380Z,7.12
2018-10-15T16:17:21.523Z,6.90
2018-10-15T16:19:24.373Z,7.37
2018-10-15T16:21:28.509Z,7.57
2018-10-15T16:23:31.565Z,7.50
2018-10-15T16:25:39.733Z,7.73
2018-10-15T16:32:50.096Z,7.77
2018-10-15T16:34:53.504Z,8.17
2018-10-15T16:37:08.765Z,7.60
2018-10-15T16:39:14.584Z,7.50
2018-10-15T16:41:23.573Z,6.80
2018-10-15T16:43:41.709Z,6.93
2018-10-15T16:45:46.206Z,7.23
2018-10-15T16:48:14.584Z,6.83
2018-10-15T16:50:24.245Z,7.57
2018-10-15T16:52:46.965Z,7.50
2018-10-15T17:00:20.555Z,7.17
2018-10-15T17:02:38.286Z,6.43
2018-10-15T17:20:13.085Z,7.50
2018-10-15T17:22:16.101Z,6.87
2018-10-15T17:24:18.475Z,7.30
2018-10-15T17:26:20.724Z,7.60
2018-10-15T17:28:22.967Z,7.17
2018-10-15T17:30:25.405Z,7.80
2018-10-15T17:32:27.701Z,6.77
2018-10-15T17:34:30.066Z,7.77
2018-10-15T17:36:32.429Z,8.27
2018-10-15T17:38:34.919Z,8.27
2018-10-15T17:40:37.507Z,8.30
2018-10-15T17:42:40.399Z,7.60
2018-10-15T17:44:50.506Z,7.63
2018-10-15T17:46:53.606Z,7.27
2018-10-15T17:48:56.174Z,6.70
2018-10-15T17:50:59.161Z,7.17
2018-10-15T17:53:02.233Z,7.43
2018-10-15T17:55:06.098Z,7.67
2018-10-15T17:57:08.713Z,7.83
2018-10-15T17:59:11.037Z,7.60
2018-10-15T18:01:13.433Z,8.03
2018-10-15T18:03:16.612Z,8.80
2018-10-15T18:05:19.224Z,9.00
2018-10-15T18:07:24.889Z,7.50
2018-10-15T18:09:33.463Z,8.57
2018-10-15T18:11:36.002Z,8.90
2018-10-15T18:13:38.467Z,8.13
2018-10-15T18:15:41.465Z,9.17
2018-10-15T18:17:44.456Z,8.57
2018-10-15T18:19:47.276Z,9.13
2018-10-15T18:21:50.022Z,9.10
2018-10-15T18:23:52.513Z,8.77
2018-10-15T18:25:55.101Z,9.20
2018-10-15T18:27:57.539Z,8.97
2018-10-15T18:29:59.914Z,9.30
2018-10-15T18:32:02.244Z,9.40
2018-10-15T18:34:04.860Z,9.40
2018-10-15T18:36:23.856Z,9.30
2018-10-15T18:38:26.396Z,10.70
2018-10-15T18:40:28.881Z,9.00
2018-10-15T18:42:31.463Z,8.53
2018-10-15T18:44:34.025Z,8.50
2018-10-15T18:46:36.552Z,8.47
2018-10-15T18:48:38.952Z,8.70
2018-10-15T19:08:23.230Z,9.47
2018-10-15T19:10:25.574Z,10.13
2018-10-15T19:12:27.960Z,8.73
2018-10-15T19:14:30.093Z,8.60
2018-10-15T19:16:32.174Z,9.37
2018-10-15T19:18:34.281Z,9.57
2018-10-15T19:20:36.382Z,9.40
2018-10-15T19:22:38.487Z,10.10
2018-10-15T19:24:40.593Z,8.50
2018-10-15T19:26:42.695Z,8.97
2018-10-15T19:28:44.823Z,8.70
2018-10-15T19:30:46.918Z,8.87
2018-10-15T19:32:49.009Z,8.87
2018-10-15T19:34:51.169Z,9.17
2018-10-15T19:36:53.311Z,9.57
2018-10-15T19:38:55.475Z,10.43
2018-10-15T19:40:57.581Z,9.60
2018-10-15T19:42:59.702Z,8.30
2018-10-15T19:45:01.917Z,7.93
2018-10-15T19:47:04.951Z,8.87
2018-10-15T19:49:07.652Z,9.37
2018-10-15T19:51:09.893Z,10.07
2018-10-15T19:53:12.733Z,9.00
2018-10-15T19:55:14.899Z,9.60
2018-10-15T19:57:17.090Z,9.70
2018-10-15T19:59:19.214Z,9.40
2018-10-15T20:01:21.369Z,8.90
2018-10-15T20:03:23.569Z,9.43
2018-10-15T20:05:25.621Z,8.80
2018-10-15T20:07:27.718Z,10.27
2018-10-15T20:09:29.926Z,9.13
2018-10-15T20:11:31.972Z,9.80
2018-10-15T20:13:34.058Z,8.87
2018-10-15T20:15:36.148Z,9.47
2018-10-15T20:17:39.163Z,8.83
2018-10-15T20:19:41.266Z,9.53
2018-10-15T20:21:43.334Z,9.43
2018-10-15T20:23:45.926Z,9.57
2018-10-15T20:25:48.102Z,10.80
2018-10-15T20:27:50.174Z,9.80
2018-10-15T20:29:53.187Z,10.43
2018-10-15T20:31:55.318Z,9.53
2018-10-15T20:33:57.442Z,8.73
2018-10-15T20:35:59.800Z,10.90
2018-10-15T20:38:01.818Z,9.87
2018-10-15T20:40:04.491Z,10.47
2018-10-15T20:42:06.598Z,9.37
2018-10-15T20:44:10.241Z,10.63
2018-10-15T20:46:12.443Z,9.70
2018-10-15T20:48:14.570Z,10.90
2018-10-15T20:50:16.644Z,10.77
2018-10-15T20:52:18.723Z,8.93
2018-10-15T20:54:20.821Z,9.13
2018-10-15T20:56:22.925Z,9.70
2018-10-15T20:58:25.253Z,9.70
2018-10-15T21:00:27.703Z,10.40
2018-10-15T21:02:30.190Z,9.13
2018-10-15T21:04:32.359Z,9.67
2018-10-15T21:06:34.879Z,10.50
2018-10-15T21:08:37.030Z,11.53
2018-10-15T21:10:39.465Z,10.50
2018-10-15T21:12:42.071Z,10.10
2018-10-15T21:14:44.183Z,10.60
2018-10-15T21:16:46.363Z,9.50
2018-10-15T21:18:48.580Z,9.17
2018-10-15T21:20:50.817Z,10.90
2018-10-15T21:22:53.038Z,10.60
2018-10-15T21:24:55.217Z,9.80
2018-10-15T21:26:58.081Z,9.97
2018-10-15T21:29:00.325Z,10.43
2018-10-15T21:31:02.466Z,10.57
2018-10-15T21:33:04.814Z,10.80
2018-10-15T21:35:07.919Z,11.30
2018-10-15T21:37:10.002Z,10.93
2018-10-15T21:39:12.100Z,11.60
2018-10-15T21:41:14.313Z,9.87
2018-10-15T21:43:16.522Z,10.47
2018-10-15T21:45:18.634Z,10.57
2018-10-15T21:47:20.736Z,11.50
2018-10-15T21:49:22.933Z,10.97
2018-10-15T21:51:25.157Z,10.30
2018-10-15T21:53:27.245Z,10.37
2018-10-15T21:55:29.377Z,10.37
2018-10-15T21:57:31.513Z,9.97
2018-10-15T21:59:33.589Z,10.17
2018-10-15T22:01:35.868Z,10.47
2018-10-15T22:03:37.991Z,9.10
2018-10-15T22:05:40.143Z,9.70
2018-10-15T22:07:42.243Z,10.30
2018-10-15T22:09:44.341Z,9.67
2018-10-15T22:11:46.441Z,10.73
2018-10-15T22:13:48.601Z,10.00
2018-10-15T22:15:50.723Z,9.50
2018-10-15T22:17:52.830Z,10.03
2018-10-15T22:19:54.997Z,9.50
2018-10-15T22:21:57.123Z,9.50
2018-10-15T22:23:59.229Z,10.40
2018-10-15T22:26:01.338Z,9.13
2018-10-15T22:28:04.017Z,9.67
2018-10-15T22:30:08.299Z,9.90
2018-10-15T22:32:10.393Z,10.47
2018-10-15T22:34:12.498Z,11.17
2018-10-15T22:36:14.596Z,10.17
2018-10-15T22:38:16.695Z,10.57
2018-10-15T22:40:18.811Z,9.80
2018-10-15T22:42:20.909Z,10.53
2018-10-15T22:44:23.002Z,11.27
2018-10-15T22:46:25.138Z,11.50
2018-10-15T22:48:27.254Z,11.00
2018-10-15T22:50:29.379Z,12.10
2018-10-15T22:52:31.489Z,10.80
2018-10-15T22:54:33.565Z,11.10
2018-10-15T22:56:36.341Z,11.27
2018-10-15T22:58:38.429Z,9.63
2018-10-15T23:00:40.533Z,10.90
2018-10-15T23:02:42.652Z,10.53
2018-10-15T23:04:44.774Z,10.83
2018-10-15T23:06:46.924Z,11.73
2018-10-15T23:08:49.042Z,10.83
2018-10-15T23:10:51.164Z,10.50
2018-10-15T23:12:53.271Z,11.60
2018-10-15T23:14:55.365Z,11.63
2018-10-15T23:16:57.526Z,12.53
2018-10-15T23:18:59.626Z,12.17
2018-10-15T23:21:01.713Z,11.50
2018-10-15T23:23:03.848Z,11.47
2018-10-15T23:25:06.455Z,9.40
2018-10-15T23:27:08.597Z,10.33
2018-10-15T23:29:10.748Z,9.77
2018-10-15T23:31:13.437Z,10.33
2018-10-15T23:33:15.541Z,11.57
2018-10-15T23:35:17.654Z,11.70
2018-10-15T23:37:19.916Z,12.03
2018-10-15T23:39:22.003Z,10.90
2018-10-15T23:41:24.128Z,11.40
2018-10-15T23:43:26.236Z,11.60
2018-10-15T23:45:28.353Z,12.53
2018-10-15T23:47:30.493Z,10.93
2018-10-15T23:49:32.618Z,11.63
2018-10-15T23:51:34.731Z,11.87
2018-10-15T23:53:36.869Z,11.70
2018-10-15T23:55:38.958Z,11.57
2018-10-15T23:57:41.061Z,11.80
2018-10-15T23:59:43.162Z,11.00
